Online since October of 2007


Active alerts

Marquette
  Details for Marquette Winter Storm Warning

Bigbaywx more information Bigbaywx


mount mesnard more information Mount Mesnard


visit our other weather sites:

Template documentation
and downloads

And another site


CBI


nearby metar reports

   
KSAW - Sawyer, Michigan
updated: Jan 23 2019 4:50 pm
light snow, overcast  
light snow, overcast  
   wind: nw 12.7 mph
wind: nw 12.7 mph
temperature: 21.2°F
wind chill: 8.6°F
dew point: 15.8°F
humidity: 80%
barometer: 29.66 inHg
clouds: overcast
visibility: 5 mi
cloud details: overcast 793 m
KSAW 232150Z 32011KT 5SM -SN OVC026 M06/M09 A2966
KESC - Escanaba, Michigan
updated: Jan 23 2019 4:56 pm
overcast  
overcast  
   wind: nw 11.5 mph
wind: nw 11.5 mph
temperature: 24.8°F
wind chill: 14°F
dew point: 17.6°F
humidity: 74%
barometer: 29.69 inHg
clouds: overcast
visibility: 10 mi
cloud details: few clouds 914 m,
mostly cloudy 1250 m,
overcast 1524 m
KESC 232156Z AUTO 32010KT 10SM FEW030 BKN041 OVC050 M04/M08 A2969 RMK AO2 SNE45 SLP078 P0000 T10441083 FZRANO
KIMT - Iron Mountain, MI
updated: Jan 23 2019 4:54 pm
mostly cloudy  
mostly cloudy  
   wind: nw 9.2 mph
wind: nw 9.2 mph
temperature: 21.2°F
wind chill: 10.4°F
dew point: 12.2°F
humidity: 68%
barometer: 29.67 inHg
clouds: mostly cloudy
visibility: 10 mi
cloud details: mostly cloudy 1036 m
KIMT 232154Z AUTO 31008KT 10SM BKN034 M06/M11 A2967 RMK AO2 SLP068 T10611106
KGRB - Green Bay, WI
updated: Jan 23 2019 4:53 pm
clear  
clear  
   wind: wnw 10.4 mph
wind: wnw 10.4 mph
temperature: 23°F
wind chill: 12.2°F
dew point: 15.8°F
humidity: 74%
barometer: 29.72 inHg
clouds: clear
visibility: 10 mi
cloud details: clear
KGRB 232153Z 29009KT 10SM CLR M05/M09 A2972 RMK AO2 SNE28 SLP076 P0002 T10501094
KDET - Detroit, MI
updated: Jan 23 2019 4:53 pm
overcast  
overcast  
   wind: sw 15 mph<br />Gust to 15 mph
wind: sw 15 mph
Gust to 15 mph
temperature: 42.8°F
wind chill: 35.6°F
dew point: 39.2°F
humidity: 87%
barometer: 29.59 inHg
clouds: overcast
visibility: 10 mi
cloud details: mostly cloudy 366 m,
overcast 823 m
KDET 232153Z 23013G20KT 10SM BKN012 OVC027 06/04 A2959 RMK AO2 RAB2059E32 SLP023 P0001 T00610044
 

script developed by  Saratoga-weather.org adapted for the template by  Weerstation Leuven

you find our weather info also at:

Weather Underground

midwestern weather network

WeatherlinkIP

Citizen Weather Observer Program (CWOP)

equipment we use:

weather-station
Davis VP2

weather-program
Davis Weatherlink.Com

Davis VP2

Davis Weatherlink.Com